createdAt,value
2023-09-02T00:01:07.671Z,8.07
2023-09-02T00:06:09.324Z,6.40
2023-09-02T00:11:11.376Z,7.30
2023-09-02T00:16:13.057Z,5.25
2023-09-02T00:21:14.534Z,7.43
2023-09-02T00:26:16.201Z,6.15
2023-09-02T00:31:17.701Z,7.13
2023-09-02T00:36:19.417Z,7.45
2023-09-02T00:41:30.410Z,6.40
2023-09-02T00:46:32.310Z,6.43
2023-09-02T00:51:33.863Z,6.88
2023-09-02T00:56:37.149Z,6.57
2023-09-02T01:01:41.500Z,5.75
2023-09-02T01:06:43.050Z,8.10
2023-09-02T01:11:44.535Z,6.90
2023-09-02T01:16:46.219Z,6.22
2023-09-02T01:22:07.230Z,5.53
2023-09-02T01:27:20.577Z,6.45
2023-09-02T01:32:24.195Z,7.32
2023-09-02T01:37:26.896Z,6.75
2023-09-02T01:42:28.871Z,5.93
2023-09-02T01:47:31.821Z,6.72
2023-09-02T01:52:34.573Z,7.93
2023-09-02T01:57:36.616Z,7.53
2023-09-02T02:02:39.016Z,8.88
2023-09-02T02:07:49.077Z,6.97
2023-09-02T02:17:53.499Z,6.38
2023-09-02T02:22:54.974Z,6.40
2023-09-02T02:27:56.651Z,8.82
2023-09-02T02:32:58.209Z,9.02
2023-09-02T02:38:00.453Z,7.68
2023-09-02T02:43:01.984Z,6.88
2023-09-02T02:48:03.795Z,8.25
2023-09-02T02:53:05.436Z,7.10
2023-09-02T02:58:07.092Z,8.25
2023-09-02T03:03:08.901Z,8.38
2023-09-02T03:08:11.131Z,7.18
2023-09-02T03:13:12.646Z,7.85
2023-09-02T03:18:14.536Z,8.43
2023-09-02T03:23:16.473Z,7.30
2023-09-02T03:28:18.082Z,7.35
2023-09-02T03:33:19.877Z,12.93
2023-09-02T03:38:21.697Z,8.23
2023-09-02T03:43:23.767Z,7.55
2023-09-02T03:48:25.437Z,6.72
2023-09-02T03:53:27.169Z,7.97
2023-09-02T03:58:29.730Z,6.80
2023-09-02T04:03:33.915Z,6.13
2023-09-02T04:08:35.830Z,8.00
2023-09-02T04:13:37.774Z,7.57
2023-09-02T04:18:39.452Z,9.20
2023-09-02T04:23:41.102Z,7.38
2023-09-02T04:28:42.678Z,6.38
2023-09-02T04:33:44.207Z,7.35
2023-09-02T04:38:46.231Z,7.80
2023-09-02T04:43:47.986Z,5.88
2023-09-02T04:48:49.609Z,7.63
2023-09-02T04:53:51.228Z,7.20
2023-09-02T04:58:52.769Z,7.22
2023-09-02T05:03:54.296Z,8.10
2023-09-02T05:08:56.141Z,7.30
2023-09-02T05:13:57.831Z,8.77
2023-09-02T05:18:59.692Z,9.32
2023-09-02T05:24:01.317Z,6.40
2023-09-02T05:29:03.095Z,6.80
2023-09-02T05:34:04.581Z,6.60
2023-09-02T05:39:06.166Z,6.95
2023-09-02T05:44:07.739Z,7.13
2023-09-02T05:49:11.422Z,8.57
2023-09-02T05:54:16.370Z,5.82
2023-09-02T06:04:43.392Z,8.13
2023-09-02T06:09:51.146Z,5.55
2023-09-02T06:15:01.572Z,5.93
2023-09-02T06:20:03.291Z,5.72
2023-09-02T06:25:05.260Z,6.00
2023-09-02T06:30:07.379Z,5.05
2023-09-02T06:35:14.657Z,6.13
2023-09-02T06:40:19.270Z,4.57
2023-09-02T06:45:21.037Z,5.78
2023-09-02T06:50:26.934Z,5.38
2023-09-02T06:55:30.609Z,6.60
2023-09-02T07:00:34.738Z,5.75
2023-09-02T07:05:36.326Z,5.75
2023-09-02T07:10:37.945Z,4.65
2023-09-02T07:15:39.557Z,6.25
2023-09-02T07:20:41.080Z,4.90
2023-09-02T07:25:51.620Z,4.32
2023-09-02T07:30:57.956Z,4.18
2023-09-02T07:36:01.873Z,6.90
2023-09-02T07:41:03.692Z,3.50
2023-09-02T07:46:05.394Z,2.45
2023-09-02T07:51:07.352Z,3.80
2023-09-02T07:56:56.044Z,3.47
2023-09-02T08:01:59.130Z,2.92
2023-09-02T08:07:00.965Z,4.75
2023-09-02T08:12:02.760Z,5.13
2023-09-02T08:17:12.196Z,3.03
2023-09-02T08:27:18.474Z,2.78
2023-09-02T08:32:24.375Z,2.38
2023-09-02T08:37:27.504Z,4.75
2023-09-02T08:42:30.752Z,2.65
2023-09-02T08:47:35.381Z,2.92
2023-09-02T08:52:42.611Z,4.05
2023-09-02T08:57:45.797Z,2.88
2023-09-02T09:02:47.828Z,3.85
2023-09-02T09:07:50.220Z,2.72
2023-09-02T09:12:53.780Z,3.90
2023-09-02T09:18:04.278Z,4.35
2023-09-02T09:23:53.364Z,4.32
2023-09-02T09:29:25.847Z,2.47
2023-09-02T09:34:41.876Z,3.75
2023-09-02T09:39:44.448Z,3.05
2023-09-02T09:45:07.741Z,4.93
2023-09-02T09:50:20.168Z,2.90
2023-09-02T10:01:04.337Z,3.95
2023-09-02T10:07:20.533Z,2.25
2023-09-02T10:18:02.668Z,4.57
2023-09-02T10:23:11.283Z,5.43
2023-09-02T10:39:09.241Z,1.88
2023-09-02T10:45:26.019Z,3.17
2023-09-02T10:50:19.018Z,2.75
2023-09-02T10:55:28.053Z,2.78
2023-09-02T11:00:49.312Z,2.65
2023-09-02T11:06:09.934Z,3.42
2023-09-02T11:11:12.284Z,2.28
2023-09-02T11:16:34.798Z,4.85
2023-09-02T11:21:50.102Z,3.60
2023-09-02T11:38:50.154Z,4.75
2023-09-02T11:43:57.268Z,2.63
2023-09-02T11:49:02.733Z,4.90
2023-09-02T11:54:24.754Z,2.20
2023-09-02T12:05:13.762Z,4.40
2023-09-02T12:10:18.118Z,4.45
2023-09-02T12:15:23.530Z,4.43
2023-09-02T12:20:25.691Z,3.70
2023-09-02T12:25:27.406Z,3.95
2023-09-02T12:30:31.121Z,2.90
2023-09-02T12:35:33.928Z,2.95
2023-09-02T12:40:38.040Z,3.38
2023-09-02T12:45:39.790Z,2.95
2023-09-02T12:50:41.854Z,5.22
2023-09-02T12:55:45.026Z,4.32
2023-09-02T13:00:49.137Z,4.43
2023-09-02T13:05:53.446Z,5.22
2023-09-02T13:10:56.530Z,3.65
2023-09-02T13:16:00.890Z,4.70
2023-09-02T13:21:02.740Z,4.75
2023-09-02T13:26:16.542Z,3.65
2023-09-02T13:31:21.548Z,3.67
2023-09-02T13:36:23.267Z,2.95
2023-09-02T13:41:25.909Z,4.72
2023-09-02T13:46:35.031Z,3.15
2023-09-02T13:51:37.152Z,3.20
2023-09-02T13:56:55.466Z,2.83
2023-09-02T14:02:06.079Z,3.00
2023-09-02T14:07:07.915Z,3.83
2023-09-02T14:12:34.596Z,4.05
2023-09-02T14:17:36.114Z,5.10
2023-09-02T14:22:37.665Z,3.38
2023-09-02T14:27:39.495Z,2.42
2023-09-02T14:32:41.081Z,3.80
2023-09-02T14:37:42.771Z,3.67
2023-09-02T14:42:47.357Z,3.63
2023-09-02T14:47:52.250Z,3.42
2023-09-02T14:52:57.101Z,5.28
2023-09-02T14:58:01.467Z,5.30
2023-09-02T15:03:10.897Z,4.70
2023-09-02T15:08:14.872Z,3.60
2023-09-02T15:13:18.263Z,4.45
2023-09-02T15:18:27.663Z,4.43
2023-09-02T15:23:31.621Z,3.88
2023-09-02T15:28:33.285Z,8.70
2023-09-02T15:33:35.081Z,3.75
2023-09-02T15:38:39.877Z,2.95
2023-09-02T15:43:41.539Z,5.22
2023-09-02T15:59:17.187Z,3.22
2023-09-02T16:04:22.109Z,5.68
2023-09-02T16:09:25.263Z,6.35
2023-09-02T16:14:37.130Z,4.88
2023-09-02T16:19:38.774Z,3.20
2023-09-02T16:29:51.657Z,7.53
2023-09-02T16:34:53.206Z,13.80
2023-09-02T16:39:56.524Z,7.43
2023-09-02T16:45:03.718Z,7.63
2023-09-02T16:50:07.523Z,7.90
2023-09-02T16:55:15.633Z,7.82
2023-09-02T17:00:19.617Z,9.00
2023-09-02T17:05:22.906Z,8.10
2023-09-02T17:10:37.683Z,8.02
2023-09-02T17:15:54.395Z,8.32
2023-09-02T17:21:12.855Z,10.30
2023-09-02T17:26:20.752Z,11.70
2023-09-02T17:31:24.832Z,11.35
2023-09-02T17:54:26.925Z,11.57
2023-09-02T18:05:33.733Z,12.05
2023-09-02T18:10:50.684Z,12.75
2023-09-02T18:27:00.561Z,14.40
2023-09-02T18:38:29.467Z,14.15
2023-09-02T18:43:45.416Z,15.27
2023-09-02T18:48:51.352Z,14.38
2023-09-02T18:59:11.946Z,15.48
2023-09-02T19:04:13.635Z,15.93
2023-09-02T19:09:15.154Z,17.42
2023-09-02T19:14:16.702Z,15.20
2023-09-02T19:19:18.305Z,15.88
2023-09-02T19:24:20.149Z,16.45
2023-09-02T19:29:21.741Z,19.55
2023-09-02T19:34:23.384Z,17.23
2023-09-02T19:39:25.126Z,14.90
2023-09-02T19:44:31.922Z,18.60
2023-09-02T19:49:33.698Z,16.75
2023-09-02T19:54:35.247Z,17.38
2023-09-02T19:59:36.973Z,18.98
2023-09-02T20:04:38.798Z,18.05
2023-09-02T20:09:40.805Z,17.40
2023-09-02T20:14:42.327Z,20.88
2023-09-02T20:19:43.871Z,24.70
2023-09-02T20:24:45.361Z,21.10
2023-09-02T20:29:47.047Z,22.17
2023-09-02T20:34:48.772Z,18.95
2023-09-02T20:39:50.344Z,17.95
2023-09-02T20:44:52.004Z,16.05
2023-09-02T20:49:53.930Z,17.33
2023-09-02T20:54:56.074Z,17.73
2023-09-02T20:59:58.573Z,15.90
2023-09-02T21:05:00.301Z,20.33
2023-09-02T21:10:01.920Z,18.20
2023-09-02T21:15:03.826Z,18.27
2023-09-02T21:20:06.876Z,21.15
2023-09-02T21:25:10.122Z,19.30
2023-09-02T21:30:12.032Z,17.80
2023-09-02T21:35:13.839Z,22.13
2023-09-02T21:40:15.370Z,17.25
2023-09-02T21:45:18.784Z,21.75
2023-09-02T21:50:20.413Z,18.50
2023-09-02T21:55:22.104Z,18.10
2023-09-02T22:00:23.721Z,18.02
2023-09-02T22:05:25.305Z,18.92
2023-09-02T22:10:26.957Z,21.75
2023-09-02T22:15:28.461Z,17.42
2023-09-02T22:20:30.108Z,20.40
2023-09-02T22:25:31.616Z,19.70
2023-09-02T22:30:33.302Z,17.13
2023-09-02T22:35:34.934Z,16.85
2023-09-02T22:40:36.659Z,15.75
2023-09-02T22:45:38.613Z,16.38
2023-09-02T22:50:40.549Z,16.70
2023-09-02T22:55:42.452Z,17.80
2023-09-02T23:00:44.412Z,17.35
2023-09-02T23:05:45.986Z,20.58
2023-09-02T23:10:47.446Z,19.45
2023-09-02T23:15:48.936Z,18.50
2023-09-02T23:20:50.468Z,17.63
2023-09-02T23:25:52.824Z,17.00
2023-09-02T23:30:58.654Z,16.42
2023-09-02T23:36:00.369Z,18.77
2023-09-02T23:41:02.843Z,17.05
2023-09-02T23:46:04.564Z,18.92
2023-09-02T23:51:06.230Z,18.30
2023-09-02T23:56:07.707Z,16.88
